Rarotonga (NCRG)

Aerodrome — Elev 19
Cook Islands
S021.12.09.860 W159.48.20.000
Loading chart...

Current Weather

NCRG 210530Z AUTO 09007KT 9999 BKN055/// 24/21 Q1015

Published 45 minutes ago

Airport Activity

Loading chart...
Loading chart...

Standard ATC Positions

CallsignRadio Name / Freq / Voice Room / TypeFrequencyType
NZZO-TSN_FSS Auckland Radio (Tasman)
129.500
nzzo-tsn_fss
129.500
NZZO_FSS Auckland Radio
129.000
nzzo_fss
129.000
NCRG_CTR Rarotonga Control
118.900
ncrg_ctr
118.900
NSFA_CTR Faleolo Control
126.900
nsfa_ctr
126.900
NCRG_APP Rarotonga Tower
118.100
ncrg_app
118.100
NCRG_APP Rarotonga Tower
118.100
ncrg_app
118.100
NFTV_TWR Vavau Tower
118.100
nftv_twr
118.100
NIUE_TWR Niue Tower
118.100
niue_twr
118.100
UNICOM NZZO UNICOM
122.800
unicom_nzzo
122.800

Event ATC Positions

This airport has additional control positions that are designated for use only during major events.
These non-standard positions must not be staffed unless specifically activated by the VATNZ Airspace Director as part of an official VATNZ event.
At all other times, controllers should use the designated Standard ATC Positions.

CallsignRadio Name / Freq / Voice Room / TypeFrequencyType
NSTU_TWR Pago Pago Tower
122.900
nstu_twr
122.900
NCRG_DEL Rarotonga Delivery
121.900
ncrg_del
121.900